Time;durP1;ratioP1;P1;durP2;ratioP2;P2;SDS_P1;SDS_P2;PMS_P1;PMS_P2;Temp;Humidity;BMP_temperature;BMP_pressure;BME280_temperature;BME280_humidity;BME280_pressure;Samples;Min_cycle;Max_cycle;Signal;HPM_P1;HPM_P2
2021/09/23 00:01:05;;;;;;;4.22;3.92;;;16.50;99.90;;;;;;5061882;28;20025;-77
2021/09/23 00:03:43;;;;;;;2.63;2.42;;;16.60;99.90;;;;;;5061111;28;20026;-76
2021/09/23 00:06:09;;;;;;;3.20;2.90;;;16.70;99.90;;;;;;5060315;28;20028;-77
2021/09/23 00:08:35;;;;;;;3.75;3.38;;;16.70;99.90;;;;;;5057197;28;20092;-77
2021/09/23 00:11:01;;;;;;;3.63;3.33;;;16.70;99.90;;;;;;5076805;28;20570;-77
2021/09/23 00:13:27;;;;;;;3.15;2.85;;;16.70;99.90;;;;;;5071651;28;20440;-77
2021/09/23 00:15:54;;;;;;;2.88;2.67;;;16.80;99.90;;;;;;5071709;28;20027;-77
2021/09/23 00:18:20;;;;;;;3.28;2.95;;;16.80;99.90;;;;;;5070126;28;20100;-77
2021/09/23 00:20:48;;;;;;;3.50;3.20;;;16.80;99.90;;;;;;5090375;28;20386;-77
2021/09/23 00:23:15;;;;;;;4.47;3.00;;;16.80;99.90;;;;;;5057152;28;20032;-77
2021/09/23 00:25:41;;;;;;;5.43;3.25;;;16.90;99.90;;;;;;5056049;28;20505;-78
2021/09/23 00:28:08;;;;;;;3.65;3.20;;;17.00;99.90;;;;;;5060237;28;20052;-77
2021/09/23 00:30:35;;;;;;;2.85;2.58;;;17.00;99.90;;;;;;5061238;28;20028;-77
2021/09/23 00:33:01;;;;;;;3.20;2.90;;;17.00;99.90;;;;;;5059461;28;20764;-77
2021/09/23 00:35:27;;;;;;;5.38;3.17;;;17.00;99.90;;;;;;5051301;28;20151;-78
2021/09/23 00:37:53;;;;;;;3.33;2.83;;;16.90;99.90;;;;;;5063331;28;20021;-77
2021/09/23 00:40:20;;;;;;;3.03;2.22;;;16.90;99.90;;;;;;5060573;28;20029;-77
2021/09/23 00:42:48;;;;;;;3.17;2.85;;;16.90;99.90;;;;;;5059874;28;20047;-77
2021/09/23 00:45:19;;;;;;;6.18;2.67;;;16.80;99.90;;;;;;5056140;28;20421;-77
2021/09/23 00:47:45;;;;;;;2.83;2.63;;;16.80;99.90;;;;;;5057848;28;20037;-77
2021/09/23 00:50:13;;;;;;;3.92;2.97;;;16.70;99.90;;;;;;5073974;28;20445;-76
2021/09/23 00:52:58;;;;;;;;;;;;;;;;;;;;;
2021/09/23 00:56:15;;;;;;;6.32;2.88;;;16.50;99.90;;;;;;5069967;28;20100;-77
2021/09/23 00:58:45;;;;;;;3.92;3.17;;;16.40;99.90;;;;;;5068003;28;20029;-78
2021/09/23 01:01:24;;;;;;;3.25;2.95;;;16.40;99.90;;;;;;5078417;28;20375;-77
2021/09/23 01:03:59;;;;;;;3.05;2.70;;;16.30;99.90;;;;;;5071430;28;20020;-77
2021/09/23 01:06:25;;;;;;;3.72;2.30;;;16.30;99.90;;;;;;5073268;28;20448;-78
2021/09/23 01:08:56;;;;;;;3.33;2.83;;;16.30;99.90;;;;;;5060706;28;20028;-77
2021/09/23 01:11:24;;;;;;;5.23;3.37;;;16.30;99.90;;;;;;5062991;28;20060;-77
2021/09/23 01:13:50;;;;;;;6.15;2.65;;;16.40;99.90;;;;;;5069934;28;20521;-77
2021/09/23 01:16:17;;;;;;;7.18;2.63;;;16.50;99.90;;;;;;5089793;28;20028;-77
2021/09/23 01:18:43;;;;;;;2.35;2.15;;;16.70;99.90;;;;;;5090018;28;20363;-77
2021/09/23 01:21:09;;;;;;;1.88;1.77;;;16.70;99.90;;;;;;5075593;28;20051;-77
2021/09/23 01:23:43;;;;;;;2.35;2.15;;;16.80;99.90;;;;;;5073723;28;20025;-77
2021/09/23 01:26:12;;;;;;;2.47;2.15;;;17.00;99.90;;;;;;5071226;28;20103;-77
2021/09/23 01:28:41;;;;;;;2.42;2.22;;;17.00;99.90;;;;;;5075650;28;20028;-77
2021/09/23 01:31:07;;;;;;;5.93;2.30;;;17.00;99.90;;;;;;5074869;28;20036;-77
2021/09/23 01:33:33;;;;;;;4.78;2.90;;;16.90;99.90;;;;;;5072830;28;20029;-77
2021/09/23 01:35:59;;;;;;;4.65;2.10;;;16.90;99.90;;;;;;5074767;28;20033;-77
2021/09/23 01:38:27;;;;;;;4.88;2.50;;;16.80;99.90;;;;;;5058043;28;20386;-77
2021/09/23 01:40:54;;;;;;;2.83;2.50;;;16.80;99.90;;;;;;5065143;28;20028;-77
2021/09/23 01:43:21;;;;;;;2.58;2.38;;;16.80;99.90;;;;;;5071788;28;20023;-77
2021/09/23 01:45:47;;;;;;;2.60;2.40;;;16.80;99.90;;;;;;5068961;28;20061;-77
2021/09/23 01:48:13;;;;;;;3.45;2.53;;;16.80;99.90;;;;;;5064161;28;20497;-77
2021/09/23 01:50:39;;;;;;;2.53;2.22;;;16.80;99.90;;;;;;5073282;28;20064;-77
2021/09/23 01:53:06;;;;;;;3.45;2.38;;;16.70;99.90;;;;;;5066655;28;20203;-77
2021/09/23 01:55:32;;;;;;;4.50;2.95;;;16.70;99.90;;;;;;5085343;28;20043;-77
2021/09/23 01:57:58;;;;;;;7.68;2.78;;;16.70;99.90;;;;;;5073487;28;20104;-77
2021/09/23 02:00:24;;;;;;;8.23;2.58;;;16.60;99.90;;;;;;5071300;28;20029;-77
2021/09/23 02:02:50;;;;;;;4.18;2.42;;;16.70;99.90;;;;;;5070803;28;20045;-76
2021/09/23 02:05:17;;;;;;;6.10;2.75;;;16.60;99.90;;;;;;5066736;28;20434;-77
2021/09/23 02:07:43;;;;;;;2.88;2.15;;;16.60;99.90;;;;;;5076154;28;20055;-77
2021/09/23 02:10:10;;;;;;;8.10;2.72;;;16.60;99.90;;;;;;5088474;28;20076;-77
2021/09/23 02:12:36;;;;;;;5.55;2.78;;;16.60;99.90;;;;;;5078990;28;20028;-77
2021/09/23 02:15:04;;;;;;;2.53;2.33;;;16.60;99.90;;;;;;5087521;28;20067;-77
2021/09/23 02:17:30;;;;;;;4.05;2.92;;;16.60;99.90;;;;;;5075785;28;20098;-79
2021/09/23 02:19:56;;;;;;;7.03;2.47;;;16.60;99.90;;;;;;5077823;28;20024;-77
2021/09/23 02:22:22;;;;;;;2.75;2.55;;;16.60;99.90;;;;;;5101048;28;20070;-77
2021/09/23 02:24:49;;;;;;;3.13;2.60;;;16.60;99.90;;;;;;5069318;28;20040;-77
2021/09/23 02:27:17;;;;;;;3.60;2.80;;;16.60;99.90;;;;;;5076420;28;20024;-77
2021/09/23 02:30:38;;;;;;;;;;;;;;;;;;;;;
2021/09/23 02:33:04;;;;;;;3.97;3.05;;;16.60;99.90;;;;;;5071562;28;20331;-77
2021/09/23 02:35:34;;;;;;;5.72;3.40;;;16.60;99.90;;;;;;5074874;28;20495;-77
2021/09/23 02:38:01;;;;;;;6.35;3.17;;;16.60;99.90;;;;;;5070930;28;20028;-76
2021/09/23 02:40:27;;;;;;;3.35;2.55;;;16.60;99.90;;;;;;5063682;28;20258;-77
2021/09/23 02:42:53;;;;;;;7.75;2.78;;;16.60;99.90;;;;;;5069382;28;20024;-77
2021/09/23 02:46:05;;;;;;;5.72;2.92;;;16.60;99.90;;;;;;5074051;28;20086;-77
2021/09/23 02:48:31;;;;;;;3.72;2.63;;;16.60;99.90;;;;;;5068041;28;20040;-76
2021/09/23 02:50:57;;;;;;;3.38;2.03;;;16.50;99.90;;;;;;5062819;28;20036;-76
2021/09/23 02:53:23;;;;;;;8.38;2.88;;;16.50;99.90;;;;;;5055637;28;20041;-76
2021/09/23 02:55:50;;;;;;;7.38;3.10;;;16.50;99.90;;;;;;5070947;28;20032;-77
2021/09/23 02:58:15;;;;;;;3.92;2.38;;;16.50;99.90;;;;;;5075646;28;20556;-77
2021/09/23 03:00:41;;;;;;;4.85;2.70;;;16.40;99.90;;;;;;5068719;28;20056;-76
2021/09/23 03:03:07;;;;;;;5.75;2.38;;;16.40;99.90;;;;;;5065297;28;20099;-76
2021/09/23 03:05:34;;;;;;;2.90;2.63;;;16.40;99.90;;;;;;5084934;28;20469;-77
2021/09/23 03:08:00;;;;;;;6.47;3.33;;;16.40;99.90;;;;;;5059004;28;20037;-77
2021/09/23 03:10:25;;;;;;;3.67;1.65;;;16.30;99.90;;;;;;5063298;28;20028;-76
2021/09/23 03:12:52;;;;;;;3.70;2.72;;;16.30;99.90;;;;;;5081170;28;20241;-77
2021/09/23 03:15:18;;;;;;;4.95;2.67;;;16.30;99.90;;;;;;5070409;28;20055;-78
2021/09/23 03:17:44;;;;;;;4.72;2.15;;;16.30;99.90;;;;;;5074323;28;20029;-77
2021/09/23 03:20:12;;;;;;;2.42;2.22;;;16.30;99.90;;;;;;5070767;28;21453;-77
2021/09/23 03:22:38;;;;;;;2.67;2.47;;;16.30;99.90;;;;;;5070348;28;20024;-77
2021/09/23 03:25:04;;;;;;;3.80;2.53;;;16.30;99.90;;;;;;5073553;28;20028;-77
2021/09/23 03:27:30;;;;;;;7.28;2.60;;;16.20;99.90;;;;;;5074349;28;20029;-76
2021/09/23 03:29:58;;;;;;;2.92;2.63;;;16.20;99.90;;;;;;5080487;28;20051;-77
2021/09/23 03:32:24;;;;;;;2.88;2.47;;;16.20;99.90;;;;;;5075505;28;20032;-76
2021/09/23 03:34:50;;;;;;;4.10;3.28;;;16.20;99.90;;;;;;5071233;28;20033;-78
2021/09/23 03:37:16;;;;;;;4.40;3.45;;;16.10;99.90;;;;;;5073784;28;20119;-77
2021/09/23 03:39:42;;;;;;;8.63;2.83;;;16.00;99.90;;;;;;5070636;28;20028;-77
2021/09/23 03:42:08;;;;;;;2.67;2.45;;;16.00;99.90;;;;;;5072810;28;20038;-77
2021/09/23 03:44:34;;;;;;;3.28;2.75;;;16.00;99.90;;;;;;5084514;28;20024;-77
2021/09/23 03:47:00;;;;;;;8.02;2.67;;;16.10;99.90;;;;;;5067322;28;20391;-77
2021/09/23 03:49:26;;;;;;;5.70;3.33;;;16.00;99.90;;;;;;5075385;28;20032;-76
2021/09/23 03:51:52;;;;;;;5.20;3.22;;;16.00;99.90;;;;;;5071973;28;20088;-77
2021/09/23 03:54:18;;;;;;;4.68;2.97;;;16.00;99.90;;;;;;5062639;28;20490;-77
2021/09/23 03:56:44;;;;;;;5.28;2.92;;;16.00;99.90;;;;;;5064088;28;20060;-76
2021/09/23 03:59:10;;;;;;;4.78;2.90;;;15.90;99.90;;;;;;5065367;28;20032;-76
2021/09/23 04:01:37;;;;;;;9.10;3.90;;;15.80;99.90;;;;;;5073703;28;20032;-77
2021/09/23 04:04:03;;;;;;;3.60;2.10;;;15.80;99.90;;;;;;5073455;28;20021;-76
2021/09/23 04:06:29;;;;;;;5.70;3.30;;;15.70;99.90;;;;;;5068443;28;20035;-76
2021/09/23 04:08:55;;;;;;;6.15;2.97;;;15.70;99.90;;;;;;5070072;28;20016;-76
2021/09/23 04:11:21;;;;;;;4.60;2.67;;;15.60;99.90;;;;;;5067683;28;20028;-77
2021/09/23 04:13:47;;;;;;;6.50;3.15;;;15.60;99.90;;;;;;5073313;28;20063;-76
2021/09/23 04:16:13;;;;;;;8.85;5.47;;;15.60;99.90;;;;;;5070552;28;20024;-76
2021/09/23 04:18:39;;;;;;;5.13;3.40;;;15.60;99.90;;;;;;5064936;28;20115;-76
2021/09/23 04:21:05;;;;;;;7.00;3.65;;;15.60;99.90;;;;;;5075479;28;20051;-76
2021/09/23 04:23:31;;;;;;;5.47;2.97;;;15.70;99.90;;;;;;5078147;28;20025;-77
2021/09/23 04:25:57;;;;;;;8.13;3.47;;;15.60;99.90;;;;;;5075716;28;20059;-76
2021/09/23 04:28:25;;;;;;;3.17;2.63;;;15.50;99.90;;;;;;5070973;28;20040;-76
2021/09/23 04:30:51;;;;;;;5.80;2.67;;;15.50;99.90;;;;;;5071811;28;20036;-76
2021/09/23 04:33:17;;;;;;;3.60;2.80;;;15.50;99.90;;;;;;5074535;28;20100;-77
2021/09/23 04:35:45;;;;;;;4.60;2.58;;;15.50;99.90;;;;;;5065844;28;20032;-76
2021/09/23 04:38:11;;;;;;;5.50;2.45;;;15.50;99.90;;;;;;5063182;28;20024;-77
2021/09/23 04:40:37;;;;;;;3.30;2.42;;;15.50;99.90;;;;;;5065876;28;20099;-77
2021/09/23 04:43:04;;;;;;;3.60;3.30;;;15.40;99.90;;;;;;5065210;28;20029;-77
2021/09/23 04:45:30;;;;;;;4.32;3.20;;;15.30;99.90;;;;;;5065619;28;20025;-77
2021/09/23 04:47:56;;;;;;;4.15;3.05;;;15.20;99.90;;;;;;5062725;28;20108;-77
2021/09/23 04:50:22;;;;;;;12.45;5.45;;;15.20;99.90;;;;;;5072576;28;20025;-77
2021/09/23 04:52:48;;;;;;;10.32;3.53;;;15.10;99.90;;;;;;5060371;28;20082;-77
2021/09/23 04:55:14;;;;;;;3.85;3.45;;;15.00;99.90;;;;;;5063934;28;20025;-77
2021/09/23 04:57:40;;;;;;;6.13;3.40;;;14.90;99.90;;;;;;5083115;28;20039;-78
2021/09/23 05:00:09;;;;;;;3.72;3.33;;;14.90;99.90;;;;;;5081536;28;20021;-77
2021/09/23 05:02:35;;;;;;;9.20;4.15;;;14.90;99.90;;;;;;5081541;28;20032;-77
2021/09/23 05:05:14;;;;;;;4.22;2.75;;;15.00;99.90;;;;;;5088389;28;20016;-77
2021/09/23 05:07:40;;;;;;;6.10;3.08;;;15.00;99.90;;;;;;5094251;28;20082;-77
2021/09/23 05:10:06;;;;;;;9.38;3.08;;;15.10;99.90;;;;;;5084413;28;20020;-78
2021/09/23 05:12:32;;;;;;;5.88;3.90;;;15.00;99.90;;;;;;5078124;28;20036;-77
2021/09/23 05:14:59;;;;;;;5.45;3.83;;;15.00;99.90;;;;;;5081460;28;20029;-76
2021/09/23 05:17:25;;;;;;;6.57;3.72;;;15.00;99.90;;;;;;5073561;28;20502;-77
2021/09/23 05:19:51;;;;;;;5.45;4.78;;;15.00;99.90;;;;;;5066029;28;20091;-76
2021/09/23 05:22:17;;;;;;;9.48;4.10;;;15.00;99.90;;;;;;5070069;28;20352;-77
2021/09/23 05:24:47;;;;;;;7.97;3.40;;;15.00;99.90;;;;;;5066599;28;20025;-77
2021/09/23 05:27:13;;;;;;;6.07;3.58;;;15.10;99.90;;;;;;5083007;28;20017;-77
2021/09/23 05:29:41;;;;;;;4.88;3.30;;;15.10;99.90;;;;;;5050633;28;20029;-78
2021/09/23 05:32:17;;;;;;;6.68;3.38;;;15.10;99.90;;;;;;5064548;28;20070;-78
2021/09/23 05:38:44;;;;;;;4.43;2.45;;;15.10;99.90;;;;;;5063587;28;20132;-77
2021/09/23 05:41:18;;;;;;;4.45;3.25;;;15.00;99.90;;;;;;5011419;28;20054;-74
2021/09/23 05:43:46;;;;;;;4.32;3.40;;;15.00;99.90;;;;;;5013222;28;20041;-75
2021/09/23 05:46:12;;;;;;;7.20;3.28;;;15.10;99.90;;;;;;5045106;28;20060;-74
2021/09/23 05:48:38;;;;;;;4.50;3.25;;;15.10;99.90;;;;;;5078676;28;20348;-74
2021/09/23 05:51:04;;;;;;;4.13;2.80;;;15.20;99.90;;;;;;5073695;28;20082;-74
2021/09/23 05:53:30;;;;;;;7.47;3.95;;;15.30;99.90;;;;;;5078229;28;20044;-75
2021/09/23 05:55:56;;;;;;;5.85;2.63;;;15.30;99.90;;;;;;5089740;28;20100;-74
2021/09/23 05:58:21;;;;;;;15.18;3.78;;;15.50;99.90;;;;;;5085360;28;20043;-74
2021/09/23 06:00:47;;;;;;;6.47;2.90;;;15.60;99.90;;;;;;5089425;28;20029;-73
2021/09/23 06:03:13;;;;;;;6.65;3.17;;;15.70;99.90;;;;;;5087011;28;20459;-75
2021/09/23 06:05:39;;;;;;;7.00;3.40;;;15.80;99.90;;;;;;5080131;28;20040;-74
2021/09/23 06:08:07;;;;;;;7.28;2.65;;;15.90;99.90;;;;;;5078569;28;20028;-74
2021/09/23 06:10:33;;;;;;;6.35;3.03;;;16.00;99.90;;;;;;5071509;28;20152;-75
2021/09/23 06:12:59;;;;;;;9.10;3.40;;;16.00;99.90;;;;;;5078139;28;20379;-77
2021/09/23 06:15:25;;;;;;;7.78;3.38;;;16.10;99.90;;;;;;5074828;28;20498;-75
2021/09/23 06:17:51;;;;;;;7.13;3.63;;;16.10;99.90;;;;;;5080479;28;20552;-75
2021/09/23 06:20:18;;;;;;;4.82;2.60;;;16.20;99.90;;;;;;5081536;28;20021;-75
2021/09/23 06:22:47;;;;;;;11.32;3.33;;;16.20;99.90;;;;;;5088467;28;20021;-74
2021/09/23 06:25:13;;;;;;;6.28;3.00;;;16.30;99.90;;;;;;5071919;28;20378;-75
2021/09/23 06:27:39;;;;;;;8.02;3.80;;;16.40;99.90;;;;;;5076225;28;20024;-75
2021/09/23 06:30:06;;;;;;;4.82;3.30;;;16.40;99.90;;;;;;5075087;28;20056;-75
2021/09/23 06:32:32;;;;;;;8.70;3.97;;;16.50;99.90;;;;;;5077436;28;20036;-75
2021/09/23 06:34:58;;;;;;;4.63;3.17;;;16.60;99.90;;;;;;5098615;28;20024;-75
2021/09/23 06:37:24;;;;;;;4.65;2.95;;;16.70;99.90;;;;;;5077537;28;20024;-75
2021/09/23 06:39:50;;;;;;;5.07;3.03;;;16.70;99.90;;;;;;5079307;28;20479;-75
2021/09/23 06:42:16;;;;;;;7.22;3.50;;;16.80;99.90;;;;;;5071476;28;20077;-75
2021/09/23 06:44:43;;;;;;;3.15;2.83;;;16.90;99.90;;;;;;5078019;28;20056;-75
2021/09/23 06:47:10;;;;;;;12.35;2.83;;;16.90;99.90;;;;;;5078459;28;20481;-75
2021/09/23 06:49:36;;;;;;;2.92;2.72;;;17.00;99.90;;;;;;5073473;28;20040;-75
2021/09/23 06:52:06;;;;;;;5.30;2.45;;;17.00;99.90;;;;;;5069474;28;20031;-75
2021/09/23 06:54:32;;;;;;;5.30;2.35;;;17.00;99.90;;;;;;5070006;28;20086;-75
2021/09/23 06:57:02;;;;;;;10.93;3.30;;;17.00;99.90;;;;;;5073052;28;20017;-76
2021/09/23 06:59:30;;;;;;;6.88;2.72;;;17.00;99.90;;;;;;5071566;28;20178;-75
2021/09/23 07:02:16;;;;;;;5.40;3.10;;;17.00;99.90;;;;;;5071337;28;20034;-75
2021/09/23 07:04:42;;;;;;;5.60;2.80;;;17.20;99.90;;;;;;5067436;28;20068;-74
2021/09/23 07:07:08;;;;;;;5.35;2.35;;;17.20;99.90;;;;;;5071179;28;20024;-76
2021/09/23 07:09:34;;;;;;;6.82;2.95;;;17.30;99.90;;;;;;5080330;28;20103;-74
2021/09/23 07:12:03;;;;;;;10.00;2.67;;;17.40;99.90;;;;;;5082898;28;20024;-74
2021/09/23 07:14:29;;;;;;;2.97;2.67;;;17.50;99.90;;;;;;5082892;28;20215;-73
2021/09/23 07:17:07;;;;;;;7.18;3.72;;;17.60;99.90;;;;;;5070602;28;20031;-74
2021/09/23 07:19:36;;;;;;;6.60;3.42;;;17.60;99.90;;;;;;5074158;28;20029;-75
2021/09/23 07:22:05;;;;;;;9.60;3.00;;;17.70;99.90;;;;;;5090722;28;20025;-75
2021/09/23 07:24:31;;;;;;;8.27;3.75;;;17.70;99.90;;;;;;5069393;28;20247;-74
2021/09/23 07:26:57;;;;;;;9.38;3.92;;;17.70;99.90;;;;;;5075685;28;20027;-75
2021/09/23 07:29:25;;;;;;;8.73;3.97;;;17.80;99.90;;;;;;5072708;28;20122;-75
2021/09/23 07:31:51;;;;;;;4.45;3.13;;;17.90;99.90;;;;;;5070174;28;20510;-75
2021/09/23 07:34:20;;;;;;;7.95;4.32;;;17.90;99.90;;;;;;5080682;28;20035;-75
2021/09/23 07:36:46;;;;;;;10.80;4.55;;;18.00;99.90;;;;;;5070868;28;20088;-75
2021/09/23 07:39:22;;;;;;;10.13;4.20;;;18.10;99.90;;;;;;5077361;28;20021;-73
2021/09/23 07:41:57;;;;;;;4.93;3.58;;;18.30;99.90;;;;;;5073028;28;20020;-74
2021/09/23 07:44:24;;;;;;;5.72;3.17;;;18.40;99.90;;;;;;5063941;28;20025;-75
2021/09/23 07:47:08;;;;;;;7.90;4.40;;;18.50;99.90;;;;;;5071321;28;20101;-73
2021/09/23 07:49:34;;;;;;;11.23;3.67;;;18.60;99.90;;;;;;5081625;28;20072;-74
2021/09/23 07:52:00;;;;;;;7.72;3.80;;;18.70;99.90;;;;;;5081429;28;20133;-74
2021/09/23 07:54:26;;;;;;;3.65;3.30;;;18.80;99.90;;;;;;5081389;28;20047;-76
2021/09/23 07:56:52;;;;;;;5.05;3.88;;;18.80;99.90;;;;;;5083120;28;20028;-73
2021/09/23 07:59:18;;;;;;;11.40;6.38;;;18.70;99.90;;;;;;5101094;28;20061;-73
2021/09/23 08:01:44;;;;;;;11.38;6.63;;;18.80;99.90;;;;;;5082221;28;20070;-75
2021/09/23 08:04:14;;;;;;;19.50;5.82;;;18.90;99.90;;;;;;5085906;28;20274;-73
2021/09/23 08:06:43;;;;;;;25.88;8.90;;;19.00;99.90;;;;;;5088919;28;20027;-73
2021/09/23 08:09:09;;;;;;;6.82;4.45;;;19.10;99.90;;;;;;5084399;28;20901;-75
2021/09/23 08:11:46;;;;;;;;;;;;;;;;;;;;;
2021/09/23 08:14:14;;;;;;;8.25;4.38;;;19.10;99.90;;;;;;5067408;28;20159;-73
2021/09/23 08:16:49;;;;;;;4.32;3.33;;;19.30;99.90;;;;;;5075130;28;20521;-74
2021/09/23 08:19:16;;;;;;;5.57;2.83;;;19.30;99.90;;;;;;5072738;28;20048;-72
2021/09/23 08:21:42;;;;;;;8.00;4.53;;;19.40;99.90;;;;;;5070871;28;20112;-73
2021/09/23 08:26:57;;;;;;;7.35;6.47;;;19.50;99.90;;;;;;5063643;28;20074;-74
2021/09/23 08:29:37;;;;;;;6.47;4.07;;;19.70;99.90;;;;;;5074303;28;20025;-73
2021/09/23 08:32:03;;;;;;;9.55;7.32;;;19.70;99.90;;;;;;5065199;28;20033;-73
2021/09/23 08:34:43;;;;;;;8.45;3.92;;;19.70;99.90;;;;;;5070483;28;20101;-73
2021/09/23 08:37:13;;;;;;;9.55;4.70;;;19.90;99.90;;;;;;5073240;28;20032;-73
2021/09/23 08:42:56;;;;;;;4.53;3.15;;;20.10;99.90;;;;;;5075600;28;20036;-74
2021/09/23 08:45:22;;;;;;;7.75;6.03;;;20.20;99.90;;;;;;5075542;28;20710;-74
2021/09/23 08:48:19;;;;;;;6.55;3.13;;;20.20;99.90;;;;;;5074791;28;20029;-74
2021/09/23 08:51:24;;;;;;;6.75;3.25;;;20.30;99.90;;;;;;5085378;28;20079;-74
2021/09/23 08:53:54;;;;;;;5.20;4.30;;;20.40;99.90;;;;;;5090077;28;20036;-74
2021/09/23 08:56:28;;;;;;;4.40;3.33;;;20.50;99.90;;;;;;5091339;28;20095;-73
2021/09/23 08:59:05;;;;;;;8.25;2.63;;;20.60;99.90;;;;;;5088246;28;20044;-75
2021/09/23 09:01:48;;;;;;;5.13;2.90;;;20.70;99.90;;;;;;5092226;28;20052;-75
2021/09/23 09:05:08;;;;;;;4.68;3.03;;;20.70;99.90;;;;;;5086598;28;20031;-74
2021/09/23 09:10:56;;;;;;;3.22;3.03;;;20.80;99.90;;;;;;5040660;28;20020;-74
2021/09/23 09:13:32;;;;;;;9.90;3.90;;;20.70;99.90;;;;;;5079783;28;20024;-74
2021/09/23 09:16:10;;;;;;;8.68;3.90;;;20.70;99.90;;;;;;5079343;28;20096;-74
2021/09/23 09:18:58;;;;;;;5.20;3.58;;;20.80;99.90;;;;;;5086821;28;20040;-75
2021/09/23 09:21:45;;;;;;;13.65;4.00;;;20.90;99.90;;;;;;5081838;28;20025;-74
2021/09/23 09:24:15;;;;;;;10.23;3.95;;;21.00;99.90;;;;;;5075864;28;20040;-74
2021/09/23 09:26:42;;;;;;;7.00;3.65;;;20.90;99.90;;;;;;5079541;28;20634;-74
2021/09/23 09:29:30;;;;;;;7.38;4.18;;;21.00;99.90;;;;;;5090985;28;20021;-74
2021/09/23 09:31:56;;;;;;;8.02;4.00;;;21.10;99.90;;;;;;5088022;28;20111;-73
2021/09/23 09:34:32;;;;;;;;;;;;;;;;;;;;;
2021/09/23 09:37:00;;;;;;;7.43;3.50;;;21.20;99.90;;;;;;5085087;28;20048;-75
2021/09/23 09:39:58;;;;;;;9.15;3.90;;;21.20;99.90;;;;;;5069131;28;20024;-74
2021/09/23 09:42:34;;;;;;;10.27;4.38;;;21.30;99.90;;;;;;5061705;28;20424;-73
2021/09/23 09:55:01;;;;;;;4.32;3.88;;;21.50;99.90;;;;;;5078042;28;20089;-73
2021/09/23 09:57:28;;;;;;;5.93;4.55;;;21.50;99.90;;;;;;5092910;28;20379;-73
2021/09/23 09:59:54;;;;;;;5.05;4.32;;;21.50;99.90;;;;;;5085680;28;20050;-72
2021/09/23 10:02:23;;;;;;;6.47;4.10;;;21.40;99.90;;;;;;5083723;28;20027;-73
2021/09/23 10:04:53;;;;;;;8.77;4.80;;;21.40;99.90;;;;;;5082536;28;20099;-73
2021/09/23 10:07:48;;;;;;;;;;;;;;;;;;;;;
2021/09/23 10:10:30;;;;;;;8.65;4.55;;;21.10;99.90;;;;;;5069206;28;20112;-74
2021/09/23 10:13:02;;;;;;;4.28;3.72;;;20.90;99.90;;;;;;5072751;28;20036;-73
2021/09/23 10:15:36;;;;;;;3.72;3.42;;;20.90;99.90;;;;;;5078415;28;20033;-73
2021/09/23 10:18:06;;;;;;;3.90;3.50;;;21.00;99.90;;;;;;5081805;28;20024;-73
2021/09/23 10:20:54;;;;;;;4.57;4.03;;;21.00;99.90;;;;;;5078351;28;20024;-73
2021/09/23 10:23:21;;;;;;;4.18;3.88;;;20.90;99.90;;;;;;5082028;28;20025;-73
2021/09/23 10:25:52;;;;;;;8.52;4.20;;;20.80;99.90;;;;;;5080897;28;20032;-73
2021/09/23 10:28:18;;;;;;;4.53;4.13;;;20.70;99.90;;;;;;5074539;28;20023;-73
2021/09/23 10:30:53;;;;;;;4.60;4.00;;;20.80;99.90;;;;;;5078295;28;20028;-74
2021/09/23 10:33:19;;;;;;;4.50;3.75;;;20.80;99.90;;;;;;5079140;28;20024;-73
2021/09/23 10:35:48;;;;;;;3.92;3.45;;;20.90;99.90;;;;;;5068336;28;20032;-73
2021/09/23 10:38:16;;;;;;;7.15;4.03;;;21.10;99.90;;;;;;5059434;28;20036;-73
2021/09/23 10:40:43;;;;;;;3.70;3.40;;;20.90;99.90;;;;;;5053615;28;20112;-73
2021/09/23 10:43:14;;;;;;;5.28;3.67;;;20.90;99.90;;;;;;5063903;28;20033;-73
2021/09/23 10:45:41;;;;;;;6.78;4.55;;;20.80;99.90;;;;;;5062731;28;20028;-74
2021/09/23 10:48:08;;;;;;;5.38;3.65;;;20.70;99.90;;;;;;5075019;28;20119;-73
2021/09/23 10:50:40;;;;;;;4.07;3.40;;;20.80;99.90;;;;;;5081972;28;20036;-73
2021/09/23 10:53:08;;;;;;;5.90;3.03;;;20.70;99.90;;;;;;5078512;28;20485;-73
2021/09/23 10:55:38;;;;;;;7.15;3.28;;;20.70;99.90;;;;;;5082106;28;20379;-74
2021/09/23 10:58:06;;;;;;;6.47;4.05;;;20.70;99.90;;;;;;5087424;28;20027;-73
2021/09/23 11:00:34;;;;;;;8.40;4.63;;;20.80;99.90;;;;;;5083748;28;20036;-73
2021/09/23 11:03:20;;;;;;;5.30;3.80;;;20.70;99.90;;;;;;5077948;28;20127;-73
2021/09/23 11:05:48;;;;;;;6.68;2.95;;;20.70;99.90;;;;;;5077819;28;20033;-73
2021/09/23 11:08:17;;;;;;;4.00;2.90;;;20.60;99.90;;;;;;5060076;28;20111;-73
2021/09/23 11:10:45;;;;;;;5.07;3.45;;;20.60;99.90;;;;;;5081747;28;20347;-73
2021/09/23 11:13:14;;;;;;;3.80;3.38;;;20.60;99.90;;;;;;5081259;28;20032;-73
2021/09/23 11:15:43;;;;;;;4.65;3.38;;;20.60;99.90;;;;;;5075182;28;20028;-73
2021/09/23 11:18:10;;;;;;;3.67;3.15;;;20.70;99.90;;;;;;5074935;28;20364;-73
2021/09/23 11:20:38;;;;;;;3.88;2.80;;;20.60;99.90;;;;;;5075282;28;20449;-72
2021/09/23 11:23:12;;;;;;;6.97;3.65;;;20.60;99.90;;;;;;5076369;28;20046;-72
2021/09/23 11:25:50;;;;;;;4.82;3.40;;;20.50;99.90;;;;;;5057184;28;20032;-73
2021/09/23 11:28:20;;;;;;;7.25;3.45;;;20.40;99.90;;;;;;5082864;28;20054;-73
2021/09/23 11:30:50;;;;;;;4.50;3.73;;;20.40;99.90;;;;;;5080069;28;20120;-73
2021/09/23 11:33:17;;;;;;;3.75;2.88;;;20.40;99.90;;;;;;5086587;28;20051;-73
2021/09/23 11:35:51;;;;;;;4.90;3.13;;;20.50;99.90;;;;;;5082807;28;20025;-73
2021/09/23 11:38:21;;;;;;;5.70;3.25;;;20.50;99.90;;;;;;5081452;28;20540;-73
2021/09/23 11:40:49;;;;;;;3.65;3.25;;;20.50;99.90;;;;;;5073581;28;20032;-73
2021/09/23 11:43:18;;;;;;;3.78;3.13;;;20.60;99.90;;;;;;5084743;28;20066;-72
2021/09/23 11:45:53;;;;;;;13.63;3.80;;;20.70;99.90;;;;;;5067169;28;20032;-74
2021/09/23 11:48:30;;;;;;;4.28;3.72;;;20.60;99.90;;;;;;5068533;28;20032;-73
2021/09/23 11:50:59;;;;;;;8.20;3.60;;;20.60;99.90;;;;;;5070513;28;20025;-73
2021/09/23 11:53:31;;;;;;;3.22;2.92;;;20.50;99.90;;;;;;5070569;28;20025;-73
2021/09/23 11:56:16;;;;;;;7.05;3.40;;;20.50;99.90;;;;;;5069630;28;20028;-73
2021/09/23 11:58:49;;;;;;;3.75;3.40;;;20.40;99.90;;;;;;5063042;28;20490;-73
2021/09/23 12:01:19;;;;;;;6.22;3.42;;;20.50;99.90;;;;;;5070115;28;20033;-73
2021/09/23 12:03:48;;;;;;;5.65;3.25;;;20.40;99.90;;;;;;5073474;28;20310;-73
2021/09/23 12:06:17;;;;;;;3.38;2.85;;;20.50;99.90;;;;;;5065924;28;20106;-73
2021/09/23 12:08:43;;;;;;;4.72;3.15;;;20.50;99.90;;;;;;5068576;28;20431;-73
2021/09/23 12:11:11;;;;;;;3.17;2.90;;;20.50;99.90;;;;;;5067891;28;20402;-73
2021/09/23 12:13:45;;;;;;;6.45;3.05;;;20.50;99.90;;;;;;5059670;28;20025;-73
2021/09/23 12:16:20;;;;;;;6.03;2.92;;;20.50;99.90;;;;;;5069225;28;20027;-73
2021/09/23 12:18:57;;;;;;;4.38;2.58;;;20.50;99.90;;;;;;5067731;28;20426;-76
2021/09/23 12:21:29;;;;;;;2.80;2.58;;;20.50;99.90;;;;;;5069860;28;20028;-74
2021/09/23 12:24:00;;;;;;;6.35;2.78;;;20.50;99.90;;;;;;5069826;28;20548;-72
2021/09/23 12:26:59;;;;;;;;;;;;;;;;;;;;;
2021/09/23 12:30:11;;;;;;;6.30;3.50;;;20.70;99.90;;;;;;5067143;28;20024;-74
2021/09/23 12:33:39;;;;;;;4.50;4.10;;;20.70;99.90;;;;;;4996750;28;20056;-73
2021/09/23 12:36:46;;;;;;;;;;;;;;;;;;;;;
2021/09/23 12:39:31;;;;;;;3.08;2.75;;;20.90;99.90;;;;;;4961019;28;20035;-74
2021/09/23 12:42:29;;;;;;;6.30;3.30;;;20.90;99.90;;;;;;4996840;28;20046;-74
2021/09/23 12:45:20;;;;;;;3.38;3.08;;;20.80;99.90;;;;;;5064528;28;20044;-74
2021/09/23 12:48:14;;;;;;;2.58;2.38;;;20.80;99.90;;;;;;5078177;28;20034;-73
2021/09/23 12:50:53;;;;;;;2.67;2.47;;;20.70;99.90;;;;;;5065150;28;20021;-73
2021/09/23 12:53:20;;;;;;;3.50;3.15;;;20.70;99.90;;;;;;5070082;28;20409;-74
2021/09/23 12:55:46;;;;;;;3.35;2.70;;;20.70;99.90;;;;;;5069200;28;20459;-74
2021/09/23 13:04:58;;;;;;;4.10;2.67;;;20.80;99.90;;;;;;5036135;28;20052;-74
2021/09/23 13:07:27;;;;;;;2.65;2.30;;;20.80;99.90;;;;;;5037678;28;20037;-75
2021/09/23 13:10:00;;;;;;;3.13;2.80;;;20.90;99.90;;;;;;5025489;28;20028;-75
2021/09/23 13:12:41;;;;;;;3.15;2.08;;;20.90;99.90;;;;;;5060849;28;20040;-73
2021/09/23 13:25:06;;;;;;;4.47;2.40;;;20.80;99.90;;;;;;5078312;28;20043;-73
2021/09/23 13:28:40;;;;;;;2.58;2.38;;;20.90;99.90;;;;;;4984483;28;20042;-73
2021/09/23 13:31:09;;;;;;;5.40;2.80;;;20.70;99.90;;;;;;4957278;28;20122;-73
2021/09/23 13:34:08;;;;;;;3.30;2.28;;;20.80;99.90;;;;;;5015421;28;20103;-74
2021/09/23 13:39:57;;;;;;;3.88;3.38;;;21.00;99.90;;;;;;5019836;28;20057;-74
2021/09/23 13:42:23;;;;;;;3.05;2.60;;;21.00;99.90;;;;;;5069083;28;20387;-74
2021/09/23 13:45:32;;;;;;;5.68;2.60;;;21.10;99.90;;;;;;5066812;28;20079;-74
2021/09/23 13:48:37;;;;;;;2.38;1.90;;;21.00;99.90;;;;;;5082980;28;20475;-74
2021/09/23 13:51:51;;;;;;;3.92;2.35;;;20.90;99.90;;;;;;5077597;28;20076;-75
2021/09/23 13:54:17;;;;;;;2.92;2.25;;;20.90;99.90;;;;;;5066951;28;20032;-75
2021/09/23 13:57:25;;;;;;;4.80;2.50;;;20.90;99.90;;;;;;5077077;28;20028;-76
2021/09/23 14:00:39;;;;;;;5.25;2.60;;;20.90;99.90;;;;;;5074766;28;20068;-75